Time;durP1;ratioP1;P1;durP2;ratioP2;P2;SDS_P1;SDS_P2;PMS_P1;PMS_P2;Temp;Humidity;BMP_temperature;BMP_pressure;BME280_temperature;BME280_humidity;BME280_pressure;Samples;Min_cycle;Max_cycle;Signal;HPM_P1;HPM_P2
2022/02/01 00:02:21;;;;;;;25.77;11.55;;;2.40;99.90;;;;;;5096200;28;20024;-66
2022/02/01 00:05:04;;;;;;;29.88;11.13;;;2.40;99.90;;;;;;5096647;28;20024;-66
2022/02/01 00:07:53;;;;;;;29.75;12.15;;;2.40;99.90;;;;;;5096341;28;20055;-66
2022/02/01 00:10:41;;;;;;;29.60;12.43;;;2.40;99.90;;;;;;5096785;28;20020;-64
2022/02/01 00:13:26;;;;;;;27.27;11.98;;;2.30;99.90;;;;;;5096182;28;20077;-64
2022/02/01 00:16:02;;;;;;;22.90;8.52;;;2.30;99.90;;;;;;5096191;28;20027;-64
2022/02/01 00:37:24;;;;;;;16.30;7.78;;;2.20;99.90;;;;;;5096957;28;20375;-66
2022/02/01 00:39:57;;;;;;;17.48;7.50;;;2.20;99.90;;;;;;5095798;28;20054;-66
2022/02/01 00:42:26;;;;;;;17.65;8.10;;;2.30;99.90;;;;;;5097036;28;20028;-66
2022/02/01 00:44:53;;;;;;;17.45;7.65;;;2.30;99.90;;;;;;5096609;28;20028;-66
2022/02/01 00:47:21;;;;;;;17.92;8.45;;;2.30;99.90;;;;;;5096301;28;20026;-66
2022/02/01 00:49:49;;;;;;;17.52;6.90;;;2.30;99.90;;;;;;5099631;28;20075;-66
2022/02/01 00:52:16;;;;;;;12.95;5.32;;;2.40;99.90;;;;;;5099750;28;20031;-66
2022/02/01 00:54:43;;;;;;;11.77;5.47;;;2.40;99.90;;;;;;5081542;28;20024;-66
2022/02/01 00:57:12;;;;;;;10.05;4.32;;;2.50;99.90;;;;;;5099516;28;20070;-66
2022/02/01 00:59:39;;;;;;;12.27;3.80;;;2.50;99.90;;;;;;5082161;28;20020;-66
2022/02/01 01:02:07;;;;;;;11.85;4.35;;;2.60;99.90;;;;;;5082423;28;20020;-66
2022/02/01 01:04:34;;;;;;;11.00;3.90;;;2.60;99.90;;;;;;5100248;28;20305;-66
2022/02/01 01:07:02;;;;;;;11.15;2.42;;;2.70;99.90;;;;;;5100315;28;20025;-66
2022/02/01 01:09:29;;;;;;;9.60;2.13;;;2.70;99.90;;;;;;5100481;28;20024;-66
2022/02/01 01:11:58;;;;;;;9.55;2.83;;;2.80;99.90;;;;;;5100361;28;20028;-66
2022/02/01 01:44:59;;;;;;;19.13;3.40;;;2.80;99.90;;;;;;5099722;28;20069;-66
2022/02/01 01:55:52;;;;;;;17.75;2.92;;;2.80;99.90;;;;;;5099351;28;20020;-66
2022/02/01 01:58:21;;;;;;;23.17;3.20;;;2.80;99.90;;;;;;5099779;28;20020;-66
2022/02/01 02:03:36;;;;;;;17.63;2.58;;;2.80;99.90;;;;;;5099365;28;20073;-66
2022/02/01 02:06:04;;;;;;;19.38;3.72;;;2.80;99.90;;;;;;5098259;28;20028;-66
2022/02/01 02:08:32;;;;;;;21.73;2.83;;;2.80;99.90;;;;;;5098360;28;20024;-66
2022/02/01 02:11:04;;;;;;;21.73;4.10;;;2.80;99.90;;;;;;5098083;28;20039;-66
2022/02/01 02:16:43;;;;;;;16.80;1.98;;;2.70;99.90;;;;;;5098319;28;20066;-66
2022/02/01 02:19:11;;;;;;;23.42;3.38;;;2.80;99.90;;;;;;5097916;28;20036;-66
2022/02/01 02:21:39;;;;;;;13.57;2.13;;;2.70;99.90;;;;;;5097980;28;20081;-66
2022/02/01 02:24:08;;;;;;;15.57;2.58;;;2.70;99.90;;;;;;5097748;28;20036;-66
2022/02/01 02:26:36;;;;;;;14.13;2.95;;;2.70;99.90;;;;;;5097859;28;20035;-66
2022/02/01 02:29:04;;;;;;;21.20;2.70;;;2.70;99.90;;;;;;5098737;28;20058;-66
2022/02/01 02:31:37;;;;;;;17.13;3.10;;;2.70;99.90;;;;;;5077326;28;20069;-66
2022/02/01 02:34:10;;;;;;;29.63;2.58;;;2.60;99.90;;;;;;5077166;28;20072;-66
2022/02/01 02:36:46;;;;;;;15.65;2.40;;;2.60;99.90;;;;;;5079072;28;20027;-66
2022/02/01 02:42:25;;;;;;;16.45;2.40;;;2.60;99.90;;;;;;5078338;28;20044;-66
2022/02/01 02:45:09;;;;;;;13.05;2.88;;;2.60;99.90;;;;;;5078949;28;20048;-66
2022/02/01 02:47:37;;;;;;;23.83;2.95;;;2.50;99.90;;;;;;5076560;28;20033;-66
2022/02/01 02:50:05;;;;;;;15.10;1.73;;;2.50;99.90;;;;;;5077036;28;20456;-66
2022/02/01 02:52:33;;;;;;;15.20;2.10;;;2.40;99.90;;;;;;5077235;28;20074;-66
2022/02/01 02:55:01;;;;;;;13.80;1.58;;;2.40;99.90;;;;;;5076994;28;20113;-66
2022/02/01 02:57:28;;;;;;;23.13;2.33;;;2.40;99.90;;;;;;5077124;28;20201;-66
2022/02/01 02:59:55;;;;;;;30.45;2.55;;;2.40;99.90;;;;;;5076960;28;20069;-66
2022/02/01 03:02:23;;;;;;;17.48;3.03;;;2.40;99.90;;;;;;5076874;28;20108;-66
2022/02/01 03:04:50;;;;;;;20.00;2.63;;;2.30;99.90;;;;;;5075760;28;20119;-66
2022/02/01 03:07:18;;;;;;;12.55;2.65;;;2.30;99.90;;;;;;5077504;28;20401;-66
2022/02/01 03:09:45;;;;;;;27.60;3.05;;;2.30;99.90;;;;;;5077777;28;20039;-66
2022/02/01 03:12:17;;;;;;;22.08;2.47;;;2.20;99.90;;;;;;5076556;28;20025;-66
2022/02/01 03:14:58;;;;;;;19.50;2.00;;;2.10;99.90;;;;;;5077983;28;20021;-66
2022/02/01 03:19:56;;;;;;;16.17;1.92;;;2.00;99.90;;;;;;5077666;28;20093;-66
2022/02/01 03:22:30;;;;;;;22.90;2.85;;;2.00;99.90;;;;;;5076842;28;20025;-66
2022/02/01 03:24:59;;;;;;;11.77;3.17;;;1.90;99.90;;;;;;5077433;28;20085;-66
2022/02/01 03:27:27;;;;;;;23.58;2.58;;;2.00;99.90;;;;;;5077939;28;20387;-66
2022/02/01 03:29:55;;;;;;;24.55;2.67;;;2.00;99.90;;;;;;5077234;28;20028;-66
2022/02/01 03:32:22;;;;;;;24.17;3.00;;;2.00;99.90;;;;;;5095006;28;20055;-66
2022/02/01 03:34:51;;;;;;;16.27;2.40;;;1.90;99.90;;;;;;5096613;28;20028;-66
2022/02/01 03:37:18;;;;;;;18.63;2.30;;;2.00;99.90;;;;;;5096743;28;20020;-66
2022/02/01 03:39:46;;;;;;;15.40;3.30;;;1.90;99.90;;;;;;5079148;28;20103;-66
2022/02/01 03:42:13;;;;;;;22.83;2.70;;;1.90;99.90;;;;;;5096582;28;20492;-66
2022/02/01 03:44:41;;;;;;;24.65;3.35;;;1.90;99.90;;;;;;5078746;28;20107;-66
2022/02/01 03:47:08;;;;;;;17.83;2.72;;;1.90;99.90;;;;;;5078576;28;20030;-66
2022/02/01 03:49:39;;;;;;;15.50;1.98;;;1.90;99.90;;;;;;5078587;28;20020;-66
2022/02/01 03:52:08;;;;;;;14.52;2.50;;;1.90;99.90;;;;;;5097025;28;20034;-66
2022/02/01 03:54:36;;;;;;;21.13;2.85;;;1.90;99.90;;;;;;5097931;28;20016;-66
2022/02/01 03:57:06;;;;;;;22.35;4.82;;;1.90;99.90;;;;;;5079434;28;20056;-66
2022/02/01 03:59:34;;;;;;;18.20;4.13;;;1.80;99.90;;;;;;5097891;28;20070;-66
2022/02/01 04:02:02;;;;;;;20.00;3.55;;;1.80;99.90;;;;;;5097536;28;20027;-66
2022/02/01 04:04:31;;;;;;;5.78;1.30;;;1.80;99.90;;;;;;5097519;28;20032;-66
2022/02/01 04:06:59;;;;;;;16.88;2.38;;;1.80;99.90;;;;;;5079396;28;20031;-66
2022/02/01 04:09:27;;;;;;;19.50;2.15;;;1.80;99.90;;;;;;5079343;28;20020;-66
2022/02/01 04:11:57;;;;;;;15.95;2.97;;;1.80;99.90;;;;;;5096687;28;20020;-66
2022/02/01 04:14:28;;;;;;;11.40;1.98;;;1.80;99.90;;;;;;5096138;28;20032;-66
2022/02/01 04:16:58;;;;;;;18.88;2.42;;;1.70;99.90;;;;;;5096144;28;20103;-66
2022/02/01 04:19:28;;;;;;;23.33;1.98;;;1.70;99.90;;;;;;5096196;28;20020;-66
2022/02/01 04:22:01;;;;;;;18.45;2.17;;;1.80;99.90;;;;;;5096459;28;20310;-66
2022/02/01 04:24:30;;;;;;;19.80;1.55;;;1.70;99.90;;;;;;5100680;28;20027;-66
2022/02/01 04:26:58;;;;;;;12.30;3.13;;;1.70;99.90;;;;;;5082132;28;20024;-66
2022/02/01 04:29:26;;;;;;;16.23;1.85;;;1.70;99.90;;;;;;5082123;28;20439;-66
2022/02/01 04:31:53;;;;;;;22.08;3.03;;;1.70;99.90;;;;;;5100084;28;20043;-66
2022/02/01 04:34:21;;;;;;;12.13;1.80;;;1.60;99.90;;;;;;5101057;28;20031;-66
2022/02/01 04:36:49;;;;;;;20.48;2.65;;;1.60;99.90;;;;;;5082973;28;20424;-66
2022/02/01 04:39:16;;;;;;;9.52;1.88;;;1.60;99.90;;;;;;5082819;28;20422;-66
2022/02/01 04:41:44;;;;;;;15.45;2.10;;;1.60;99.90;;;;;;5100889;28;20020;-66
2022/02/01 04:44:12;;;;;;;20.20;2.38;;;1.50;99.90;;;;;;5100633;28;20412;-66
2022/02/01 04:46:39;;;;;;;15.10;2.67;;;1.50;99.90;;;;;;5082763;28;20039;-66
2022/02/01 04:49:09;;;;;;;16.55;1.98;;;1.40;99.90;;;;;;5100533;28;20032;-66
2022/02/01 04:51:38;;;;;;;14.93;2.45;;;1.40;99.90;;;;;;5083444;28;20032;-66
2022/02/01 04:54:06;;;;;;;15.43;1.88;;;1.40;99.90;;;;;;5100230;28;20051;-66
2022/02/01 04:56:35;;;;;;;14.30;1.80;;;1.30;99.90;;;;;;5099484;28;20480;-66
2022/02/01 04:59:03;;;;;;;17.90;2.58;;;1.30;99.90;;;;;;5100043;28;20016;-66
2022/02/01 05:01:39;;;;;;;16.98;2.83;;;1.30;99.90;;;;;;5099422;28;20028;-66
2022/02/01 05:04:07;;;;;;;18.60;3.22;;;1.40;99.90;;;;;;5099420;28;20038;-66
2022/02/01 05:06:35;;;;;;;20.25;2.50;;;1.40;99.90;;;;;;5099418;28;20073;-66
2022/02/01 05:09:04;;;;;;;12.27;1.75;;;1.30;99.90;;;;;;5081395;28;20028;-66
2022/02/01 05:11:33;;;;;;;11.57;1.73;;;1.40;99.90;;;;;;5081951;28;20051;-66
2022/02/01 05:16:43;;;;;;;20.58;1.92;;;1.40;99.90;;;;;;5100206;28;20012;-66
2022/02/01 05:19:22;;;;;;;16.35;1.35;;;1.40;99.90;;;;;;5100606;28;20047;-66
2022/02/01 05:21:51;;;;;;;25.42;2.45;;;1.40;99.90;;;;;;5100032;28;20016;-66
2022/02/01 05:24:20;;;;;;;12.18;2.05;;;1.40;99.90;;;;;;5099902;28;20047;-66
2022/02/01 05:26:48;;;;;;;17.42;2.38;;;1.40;99.90;;;;;;5082673;28;20039;-66
2022/02/01 05:29:18;;;;;;;10.10;2.28;;;1.50;99.90;;;;;;5100399;28;20415;-66
2022/02/01 05:31:51;;;;;;;16.23;2.15;;;1.50;99.90;;;;;;5100017;28;20411;-66
2022/02/01 05:34:21;;;;;;;11.90;1.63;;;1.60;99.90;;;;;;5098755;28;20047;-66
2022/02/01 05:36:49;;;;;;;15.10;1.75;;;1.70;99.90;;;;;;5099597;28;20028;-66
2022/02/01 05:39:21;;;;;;;8.73;2.13;;;1.70;99.90;;;;;;5080971;28;20046;-66
2022/02/01 05:41:51;;;;;;;12.95;1.50;;;1.80;99.90;;;;;;5098766;28;20428;-66
2022/02/01 05:44:19;;;;;;;19.05;2.20;;;1.80;99.90;;;;;;5098891;28;20024;-66
2022/02/01 05:46:47;;;;;;;18.70;2.90;;;1.90;99.90;;;;;;5098622;28;20324;-66
2022/02/01 05:49:16;;;;;;;15.75;3.40;;;1.90;99.90;;;;;;5098429;28;20020;-66
2022/02/01 05:51:44;;;;;;;12.50;2.42;;;1.90;99.90;;;;;;5098610;28;20332;-66
2022/02/01 05:54:11;;;;;;;15.27;2.20;;;2.00;99.90;;;;;;5098544;28;20020;-66
2022/02/01 05:56:39;;;;;;;18.33;2.75;;;2.00;99.90;;;;;;5098528;28;20020;-66
2022/02/01 05:59:06;;;;;;;18.08;2.22;;;2.00;99.90;;;;;;5080854;28;20031;-66
2022/02/01 06:01:33;;;;;;;10.88;2.45;;;2.00;99.90;;;;;;5099388;28;20055;-66
2022/02/01 06:04:01;;;;;;;16.70;2.50;;;2.10;99.90;;;;;;5081391;28;20420;-66
2022/02/01 06:06:29;;;;;;;16.10;2.30;;;2.10;99.90;;;;;;5099131;28;20028;-66
2022/02/01 06:08:57;;;;;;;14.70;2.78;;;2.10;99.90;;;;;;5099068;28;20035;-66
2022/02/01 06:11:24;;;;;;;11.30;1.65;;;2.10;99.90;;;;;;5081190;28;20031;-66
2022/02/01 06:13:51;;;;;;;19.40;2.17;;;2.10;99.90;;;;;;5098855;28;20032;-66
2022/02/01 06:16:19;;;;;;;22.70;2.90;;;2.20;99.90;;;;;;5081026;28;20362;-66
2022/02/01 06:18:46;;;;;;;17.13;3.53;;;2.20;99.90;;;;;;5098441;28;20103;-66
2022/02/01 06:21:13;;;;;;;11.77;1.92;;;2.20;99.90;;;;;;5080417;28;20057;-66
2022/02/01 06:23:40;;;;;;;18.70;2.63;;;2.20;99.90;;;;;;5080060;28;20016;-66
2022/02/01 06:26:07;;;;;;;9.57;3.15;;;2.20;99.90;;;;;;5098025;28;20028;-66
2022/02/01 06:28:35;;;;;;;13.63;1.73;;;2.20;99.90;;;;;;5097957;28;20081;-66
2022/02/01 06:31:02;;;;;;;17.75;2.17;;;2.20;99.90;;;;;;5097525;28;20366;-66
2022/02/01 06:33:31;;;;;;;19.45;3.03;;;2.20;99.90;;;;;;5097475;28;20043;-66
2022/02/01 06:35:59;;;;;;;12.85;2.03;;;2.30;99.90;;;;;;5097749;28;20020;-66
2022/02/01 06:38:26;;;;;;;31.33;6.22;;;2.30;99.90;;;;;;5079600;28;20106;-66
2022/02/01 06:40:54;;;;;;;10.93;2.83;;;2.30;99.90;;;;;;5097700;28;20366;-66
2022/02/01 06:43:21;;;;;;;12.68;2.00;;;2.30;99.90;;;;;;5080365;28;20054;-66
2022/02/01 06:45:48;;;;;;;10.27;1.77;;;2.30;99.90;;;;;;5098171;28;20047;-66
2022/02/01 06:48:16;;;;;;;16.13;3.30;;;2.30;99.90;;;;;;5098289;28;20099;-66
2022/02/01 06:50:43;;;;;;;26.60;2.92;;;2.30;99.90;;;;;;5099125;28;20343;-66
2022/02/01 06:53:10;;;;;;;13.63;2.38;;;2.40;99.90;;;;;;5097969;28;20036;-66
2022/02/01 06:58:11;;;;;;;14.18;2.05;;;2.40;99.90;;;;;;5098078;28;20042;-66
2022/02/01 07:00:39;;;;;;;14.38;1.80;;;2.40;99.90;;;;;;5097922;28;20028;-66
2022/02/01 07:03:07;;;;;;;18.35;2.33;;;2.40;99.90;;;;;;5095951;28;20080;-68
2022/02/01 07:05:35;;;;;;;12.70;2.35;;;2.40;99.90;;;;;;5097238;28;20024;-66
2022/02/01 07:08:03;;;;;;;11.40;1.42;;;2.40;99.90;;;;;;5097004;28;20027;-69
2022/02/01 07:10:30;;;;;;;10.75;2.67;;;2.40;99.90;;;;;;5096879;28;20032;-69
2022/02/01 07:12:58;;;;;;;9.13;1.70;;;2.40;99.90;;;;;;5078866;28;20028;-69
2022/02/01 07:15:26;;;;;;;13.13;3.03;;;2.50;99.90;;;;;;5097165;28;20078;-69
2022/02/01 07:17:55;;;;;;;16.58;2.85;;;2.50;99.90;;;;;;5096938;28;20016;-69
2022/02/01 07:20:24;;;;;;;16.27;3.13;;;2.50;99.90;;;;;;5096848;28;20028;-69
2022/02/01 07:22:52;;;;;;;16.50;2.50;;;2.50;99.90;;;;;;5096873;28;20024;-73
2022/02/01 07:25:29;;;;;;;7.10;1.73;;;2.50;99.90;;;;;;5079585;28;20047;-69
2022/02/01 07:28:02;;;;;;;12.85;3.10;;;2.50;99.90;;;;;;5097816;28;20092;-70
2022/02/01 07:30:29;;;;;;;12.55;1.88;;;2.50;99.90;;;;;;5097459;28;20016;-69
2022/02/01 07:32:59;;;;;;;15.27;2.65;;;2.50;99.90;;;;;;5080381;28;20115;-71
2022/02/01 07:35:30;;;;;;;13.68;3.28;;;2.50;99.90;;;;;;5097607;28;20035;-71
2022/02/01 07:38:00;;;;;;;10.63;2.45;;;2.50;99.90;;;;;;5080466;28;20313;-68
2022/02/01 07:40:28;;;;;;;13.38;2.47;;;2.50;99.90;;;;;;5097391;28;20028;-75
2022/02/01 07:42:56;;;;;;;13.13;2.75;;;2.60;99.90;;;;;;5097981;28;20020;-73
2022/02/01 07:45:28;;;;;;;9.43;2.90;;;2.60;99.90;;;;;;5096726;28;20024;-74
2022/02/01 07:47:58;;;;;;;14.43;2.35;;;2.60;99.90;;;;;;5096534;28;20420;-74
2022/02/01 07:50:26;;;;;;;14.95;3.13;;;2.60;99.90;;;;;;5096735;28;20035;-74
2022/02/01 07:52:54;;;;;;;14.48;4.78;;;2.60;99.90;;;;;;5097059;28;20052;-74
2022/02/01 07:55:22;;;;;;;27.15;4.40;;;2.60;99.90;;;;;;5096363;28;20027;-70
2022/02/01 07:57:49;;;;;;;19.77;4.82;;;2.60;99.90;;;;;;5098316;28;20020;-74
2022/02/01 08:00:19;;;;;;;14.40;3.78;;;2.60;99.90;;;;;;5100947;28;20024;-70
2022/02/01 08:02:50;;;;;;;13.10;3.33;;;2.70;99.90;;;;;;5083230;28;20036;-68
2022/02/01 08:05:18;;;;;;;11.18;3.47;;;2.70;99.90;;;;;;5100744;28;20113;-71
2022/02/01 08:07:45;;;;;;;21.77;5.50;;;2.70;99.90;;;;;;5083118;28;20028;-71
2022/02/01 08:10:15;;;;;;;27.50;3.55;;;2.80;99.90;;;;;;5101461;28;20047;-70
2022/02/01 08:16:30;;;;;;;8.20;2.67;;;2.80;99.90;;;;;;5101308;28;20050;-70
2022/02/01 08:18:27;;;;;;;8.95;2.60;;;2.80;99.90;;;;;;5089989;28;20301;-70
2022/02/01 08:21:03;;;;;;;11.98;3.47;;;2.90;99.90;;;;;;5101260;28;20030;-67
2022/02/01 08:23:31;;;;;;;7.50;2.60;;;2.90;99.90;;;;;;5101000;28;20424;-68
2022/02/01 08:25:59;;;;;;;11.38;3.20;;;3.00;99.90;;;;;;5100924;28;20035;-69
2022/02/01 08:28:26;;;;;;;13.02;3.17;;;3.00;99.90;;;;;;5100584;28;20020;-69
2022/02/01 08:30:54;;;;;;;16.77;4.05;;;3.00;99.90;;;;;;5078727;28;20048;-68
2022/02/01 08:33:23;;;;;;;18.17;3.75;;;3.00;99.90;;;;;;5079674;28;20394;-69
2022/02/01 08:35:51;;;;;;;11.57;2.30;;;3.00;99.90;;;;;;5080370;28;20329;-69
2022/02/01 08:38:19;;;;;;;17.80;3.05;;;3.10;99.90;;;;;;5078626;28;20050;-69
2022/02/01 08:40:48;;;;;;;9.10;3.00;;;3.10;99.90;;;;;;5079831;28;20506;-69
2022/02/01 08:43:16;;;;;;;19.50;4.45;;;3.10;99.90;;;;;;5079895;28;20347;-69
2022/02/01 08:45:44;;;;;;;10.88;3.38;;;3.20;99.90;;;;;;5079573;28;20089;-69
2022/02/01 08:48:12;;;;;;;14.13;5.03;;;3.20;99.90;;;;;;5079570;28;20020;-69
2022/02/01 08:50:39;;;;;;;14.90;5.20;;;3.20;99.90;;;;;;5079993;28;20028;-69
2022/02/01 08:53:17;;;;;;;13.40;5.45;;;3.30;99.90;;;;;;5079551;28;20321;-69
2022/02/01 08:58:27;;;;;;;11.93;4.90;;;3.30;99.90;;;;;;5080334;28;20147;-69
2022/02/01 09:00:54;;;;;;;16.15;4.18;;;3.30;99.90;;;;;;5080279;28;20099;-68
2022/02/01 09:03:22;;;;;;;15.20;4.70;;;3.40;99.90;;;;;;5079393;28;20103;-68
2022/02/01 09:05:49;;;;;;;10.50;4.88;;;3.40;99.90;;;;;;5078910;28;20033;-68
2022/02/01 09:08:18;;;;;;;16.17;4.15;;;3.40;99.90;;;;;;5079810;28;20493;-71
2022/02/01 09:10:45;;;;;;;11.05;3.88;;;3.50;99.90;;;;;;5079160;28;20029;-70
2022/02/01 09:13:13;;;;;;;16.23;5.18;;;3.50;99.90;;;;;;5078838;28;20032;-68
2022/02/01 09:15:41;;;;;;;17.65;4.00;;;3.50;99.90;;;;;;5079129;28;20016;-68
2022/02/01 09:18:09;;;;;;;15.77;4.90;;;3.50;99.90;;;;;;5079133;28;20078;-68
2022/02/01 09:20:37;;;;;;;10.63;3.75;;;3.50;99.90;;;;;;5078825;28;20101;-69
2022/02/01 09:23:04;;;;;;;9.13;4.07;;;3.50;99.90;;;;;;5078881;28;20074;-70
2022/02/01 09:25:31;;;;;;;12.85;3.97;;;3.50;99.90;;;;;;5079436;28;20028;-69
2022/02/01 09:28:00;;;;;;;8.55;2.78;;;3.50;99.90;;;;;;5078764;28;20021;-69
2022/02/01 09:30:29;;;;;;;8.10;3.42;;;3.60;99.90;;;;;;5080503;28;20106;-69
2022/02/01 09:32:57;;;;;;;10.82;4.30;;;3.70;99.90;;;;;;5099387;28;20306;-69
2022/02/01 09:35:25;;;;;;;14.45;4.07;;;3.70;99.90;;;;;;5100081;28;20372;-67
2022/02/01 09:37:52;;;;;;;16.63;4.88;;;3.80;99.90;;;;;;5099669;28;20020;-72
2022/02/01 09:40:19;;;;;;;23.73;4.95;;;3.80;99.90;;;;;;5099600;28;20020;-73
2022/02/01 09:42:47;;;;;;;12.30;4.30;;;3.80;99.90;;;;;;5099596;28;20038;-72
2022/02/01 09:45:14;;;;;;;11.38;4.07;;;3.90;99.90;;;;;;5100044;28;20020;-67
2022/02/01 09:47:46;;;;;;;7.93;3.75;;;3.80;99.90;;;;;;5081789;28;20424;-70
2022/02/01 09:50:16;;;;;;;9.55;3.40;;;3.80;99.90;;;;;;5099203;28;20107;-67
2022/02/01 09:52:43;;;;;;;11.98;4.82;;;3.80;99.90;;;;;;5081342;28;20393;-68
2022/02/01 09:55:13;;;;;;;13.25;5.05;;;3.70;99.90;;;;;;5098321;28;20065;-67
2022/02/01 09:57:45;;;;;;;8.82;3.15;;;3.70;99.90;;;;;;5098374;28;20028;-67
2022/02/01 10:00:15;;;;;;;9.68;3.65;;;3.70;99.90;;;;;;5098414;28;20127;-67
2022/02/01 10:02:46;;;;;;;12.20;4.20;;;3.70;99.90;;;;;;5098181;28;20028;-69
2022/02/01 10:05:16;;;;;;;9.45;4.55;;;3.70;99.90;;;;;;5098735;28;20020;-69
2022/02/01 10:07:55;;;;;;;20.13;4.00;;;3.60;99.90;;;;;;5098524;28;20038;-69
2022/02/01 10:10:26;;;;;;;5.97;3.38;;;3.60;99.90;;;;;;5098137;28;20077;-67
2022/02/01 10:13:02;;;;;;;8.10;3.60;;;3.50;99.90;;;;;;5097966;28;20086;-66
2022/02/01 10:15:33;;;;;;;15.18;4.15;;;3.50;99.90;;;;;;5099309;28;20021;-68
2022/02/01 10:18:04;;;;;;;6.20;3.40;;;3.50;99.90;;;;;;5081777;28;20366;-67
2022/02/01 10:20:38;;;;;;;10.40;3.67;;;3.40;99.90;;;;;;5098234;28;20048;-68
2022/02/01 10:23:25;;;;;;;11.82;3.78;;;3.40;99.90;;;;;;5080847;28;20024;-68
2022/02/01 10:26:04;;;;;;;6.47;3.83;;;3.30;99.90;;;;;;5099099;28;20440;-68
2022/02/01 10:29:20;;;;;;;6.00;2.80;;;3.30;99.90;;;;;;5099272;28;20035;-69
2022/02/01 10:31:56;;;;;;;5.13;2.90;;;3.30;99.90;;;;;;5098676;28;20044;-69
2022/02/01 10:36:57;;;;;;;5.72;3.10;;;3.20;99.90;;;;;;5097889;28;20073;-67
2022/02/01 10:39:31;;;;;;;9.25;3.53;;;3.20;99.90;;;;;;5097871;28;20113;-70
2022/02/01 10:42:01;;;;;;;9.38;3.33;;;3.20;99.90;;;;;;5097560;28;20073;-67
2022/02/01 10:44:46;;;;;;;8.70;3.97;;;3.20;99.90;;;;;;5097369;28;20020;-69
2022/02/01 10:47:31;;;;;;;4.70;3.08;;;3.20;99.90;;;;;;5079767;28;20085;-68
2022/02/01 10:50:10;;;;;;;6.00;3.28;;;3.30;99.90;;;;;;5097297;28;20024;-67
2022/02/01 10:52:44;;;;;;;6.20;3.75;;;3.30;99.90;;;;;;5097602;28;20320;-67
2022/02/01 10:55:15;;;;;;;6.95;4.28;;;3.40;99.90;;;;;;5079284;28;20016;-67
2022/02/01 10:57:42;;;;;;;7.40;2.83;;;3.40;99.90;;;;;;5097986;28;20020;-68
2022/02/01 11:00:12;;;;;;;7.75;3.63;;;3.40;99.90;;;;;;5080625;28;20020;-69
2022/02/01 11:02:44;;;;;;;6.50;3.00;;;3.50;99.90;;;;;;5098164;28;20023;-67
2022/02/01 11:05:13;;;;;;;6.97;3.58;;;3.50;99.90;;;;;;5097928;28;20336;-67
2022/02/01 11:07:40;;;;;;;7.90;3.20;;;3.60;99.90;;;;;;5098675;28;20081;-67
2022/02/01 11:10:11;;;;;;;7.32;3.08;;;3.60;99.90;;;;;;5097795;28;20063;-68
2022/02/01 11:12:41;;;;;;;5.38;2.40;;;3.60;99.90;;;;;;5097918;28;20020;-66
2022/02/01 11:15:27;;;;;;;7.65;3.28;;;3.70;99.90;;;;;;5080813;28;20024;-67
2022/02/01 11:17:54;;;;;;;4.70;2.92;;;3.70;99.90;;;;;;5097375;28;20016;-66
2022/02/01 11:20:32;;;;;;;4.07;2.45;;;3.70;99.90;;;;;;5078949;28;20024;-69
2022/02/01 11:23:10;;;;;;;5.47;2.53;;;3.80;99.90;;;;;;5096816;28;20031;-70
2022/02/01 11:25:46;;;;;;;4.95;2.63;;;3.80;99.90;;;;;;5096813;28;20043;-70
2022/02/01 11:28:41;;;;;;;7.30;2.83;;;3.80;99.90;;;;;;5097122;28;20024;-70
2022/02/01 11:31:09;;;;;;;3.25;2.13;;;3.90;99.90;;;;;;5096877;28;20047;-67
2022/02/01 11:33:43;;;;;;;4.88;2.45;;;3.90;99.90;;;;;;5077952;28;20119;-68
2022/02/01 11:36:12;;;;;;;5.28;2.08;;;4.00;99.90;;;;;;5096804;28;20023;-69
2022/02/01 11:38:58;;;;;;;3.42;2.28;;;4.00;99.90;;;;;;5096763;28;20085;-67
2022/02/01 11:41:38;;;;;;;3.80;2.38;;;4.00;99.90;;;;;;5097538;28;20105;-67
2022/02/01 11:44:22;;;;;;;6.38;2.33;;;4.00;99.90;;;;;;5097550;28;20052;-67
2022/02/01 11:47:11;;;;;;;3.92;1.80;;;4.00;99.90;;;;;;5097751;28;20158;-67
2022/02/01 11:50:01;;;;;;;2.92;2.28;;;4.00;99.90;;;;;;5097838;28;20027;-67
2022/02/01 11:52:29;;;;;;;4.60;1.85;;;4.10;99.90;;;;;;5097700;28;20035;-69
2022/02/01 11:55:08;;;;;;;3.15;1.27;;;4.10;99.90;;;;;;5097473;28;20027;-69
2022/02/01 11:57:41;;;;;;;2.20;1.20;;;4.10;99.90;;;;;;5079888;28;20293;-69
2022/02/01 12:00:17;;;;;;;3.53;2.28;;;4.10;99.90;;;;;;5096931;28;20440;-69
2022/02/01 12:02:55;;;;;;;2.80;1.60;;;4.10;99.90;;;;;;5078769;28;20466;-69
2022/02/01 12:05:29;;;;;;;2.55;1.50;;;4.10;99.90;;;;;;5096507;28;20361;-69
2022/02/01 12:08:15;;;;;;;3.10;2.03;;;4.20;99.90;;;;;;5096392;28;20032;-67
2022/02/01 12:10:51;;;;;;;6.97;1.30;;;4.20;99.90;;;;;;5096489;28;20093;-67
2022/02/01 12:13:19;;;;;;;;;;;4.20;99.90;;;;;;5097040;28;20028;-67
2022/02/01 12:15:48;;;;;;;3.15;1.92;;;4.20;99.90;;;;;;5096384;28;19986;-66
2022/02/01 12:18:34;;;;;;;2.80;1.45;;;4.20;99.90;;;;;;5096362;28;20016;-71
2022/02/01 12:21:15;;;;;;;2.60;1.60;;;4.20;99.90;;;;;;5097068;28;20407;-69
2022/02/01 12:23:49;;;;;;;2.13;1.45;;;4.30;99.90;;;;;;5096955;28;20082;-69
2022/02/01 12:26:22;;;;;;;2.53;1.20;;;4.20;99.90;;;;;;5097690;28;20027;-69
2022/02/01 12:28:52;;;;;;;2.33;1.30;;;4.20;99.90;;;;;;5097214;28;20056;-69
2022/02/01 12:31:20;;;;;;;4.03;2.08;;;4.30;99.90;;;;;;5096821;28;20048;-68
2022/02/01 12:33:52;;;;;;;2.20;1.40;;;4.30;99.90;;;;;;5078884;28;20450;-68
2022/02/01 12:36:27;;;;;;;3.03;1.48;;;4.30;99.90;;;;;;5097012;28;20020;-69
2022/02/01 12:39:12;;;;;;;1.70;1.02;;;4.30;99.90;;;;;;5096870;28;20020;-63
2022/02/01 12:41:59;;;;;;;2.45;1.35;;;4.40;99.90;;;;;;5096573;28;20028;-69
2022/02/01 12:47:01;;;;;;;2.25;0.80;;;4.50;99.90;;;;;;5099949;28;20023;-69
2022/02/01 12:49:49;;;;;;;2.47;0.98;;;4.50;99.90;;;;;;5099680;28;20111;-69
2022/02/01 12:52:29;;;;;;;1.70;1.08;;;4.50;99.90;;;;;;5099845;28;20301;-68
2022/02/01 12:55:12;;;;;;;1.55;0.90;;;4.50;99.90;;;;;;5099470;28;20111;-69
2022/02/01 12:57:44;;;;;;;1.65;0.80;;;4.60;99.90;;;;;;5099648;28;20024;-69
2022/02/01 13:00:14;;;;;;;1.38;0.75;;;4.60;99.90;;;;;;5099492;28;20028;-69
2022/02/01 13:02:42;;;;;;;1.67;0.98;;;4.60;99.90;;;;;;5099559;28;20024;-68
2022/02/01 13:05:14;;;;;;;1.90;1.10;;;4.60;99.90;;;;;;5100404;28;20031;-68
2022/02/01 13:07:56;;;;;;;1.25;0.70;;;4.60;99.90;;;;;;5100320;28;20063;-67
2022/02/01 13:16:36;;;;;;;1.90;0.80;;;4.70;99.90;;;;;;5100226;28;20370;-66
2022/02/01 13:21:39;;;;;;;2.15;1.42;;;4.80;99.90;;;;;;5100230;28;20447;-67
2022/02/01 13:24:10;;;;;;;1.92;1.10;;;4.80;99.90;;;;;;5100519;28;20020;-67
2022/02/01 13:26:37;;;;;;;1.55;0.90;;;4.80;99.90;;;;;;5099726;28;20028;-67
2022/02/01 13:29:12;;;;;;;1.30;0.75;;;4.80;99.90;;;;;;5081240;28;20328;-67
2022/02/01 13:31:48;;;;;;;2.70;1.52;;;4.80;99.90;;;;;;5099228;28;20047;-68
2022/02/01 13:34:24;;;;;;;3.30;1.75;;;4.80;99.90;;;;;;5098994;28;20055;-67
2022/02/01 13:36:54;;;;;;;2.10;1.60;;;4.80;99.90;;;;;;5098908;28;20027;-67
2022/02/01 13:39:33;;;;;;;3.63;2.20;;;4.90;99.90;;;;;;5098743;28;20415;-67
2022/02/01 13:42:09;;;;;;;3.13;1.50;;;4.90;99.90;;;;;;5080956;28;20028;-67
2022/02/01 13:44:39;;;;;;;1.95;1.02;;;4.90;99.90;;;;;;5099359;28;20427;-67
2022/02/01 13:47:08;;;;;;;1.60;1.10;;;4.90;99.90;;;;;;5098782;28;20063;-67
2022/02/01 13:49:37;;;;;;;2.53;1.35;;;4.90;99.90;;;;;;5099605;28;20027;-67
2022/02/01 13:52:07;;;;;;;1.88;1.30;;;4.90;99.90;;;;;;5099746;28;20020;-67
2022/02/01 13:54:53;;;;;;;3.13;1.23;;;4.90;99.90;;;;;;5081099;28;20031;-67
2022/02/01 13:57:22;;;;;;;2.42;1.65;;;4.90;99.90;;;;;;5081486;28;20024;-67
2022/02/01 13:59:50;;;;;;;2.55;1.48;;;4.90;99.90;;;;;;5081448;28;20047;-67
2022/02/01 14:02:33;;;;;;;2.13;1.10;;;4.90;99.90;;;;;;5081496;28;20035;-66
2022/02/01 14:05:06;;;;;;;1.83;1.35;;;5.00;99.90;;;;;;5098977;28;20016;-67
2022/02/01 14:10:32;;;;;;;3.25;2.42;;;5.00;99.90;;;;;;5097030;28;20395;-66
2022/02/01 14:26:43;;;;;;;3.40;2.03;;;5.10;99.90;;;;;;5098600;28;20035;-66
2022/02/01 14:32:14;;;;;;;2.25;1.55;;;5.20;99.90;;;;;;5098855;28;20044;-67
2022/02/01 14:34:44;;;;;;;3.13;1.40;;;5.20;99.90;;;;;;5098749;28;20035;-67
2022/02/01 14:37:20;;;;;;;2.08;1.27;;;5.20;99.90;;;;;;5099016;28;20081;-66
2022/02/01 14:45:20;;;;;;;1.58;1.08;;;5.30;99.90;;;;;;5098667;28;20443;-67
2022/02/01 14:47:48;;;;;;;2.55;1.17;;;5.30;99.90;;;;;;5098376;28;20439;-66
2022/02/01 14:50:17;;;;;;;2.97;1.60;;;5.40;99.90;;;;;;5098055;28;20035;-67
2022/02/01 14:52:44;;;;;;;2.70;1.65;;;5.40;99.90;;;;;;5097572;28;20032;-66
2022/02/01 14:55:14;;;;;;;2.35;1.60;;;5.40;99.90;;;;;;5097144;28;20107;-67
2022/02/01 15:11:45;;;;;;;1.88;1.02;;;5.50;99.90;;;;;;5097068;28;20441;-71
2022/02/01 15:14:13;;;;;;;0.75;0.50;;;5.50;99.90;;;;;;5098066;28;20158;-67
2022/02/01 15:16:40;;;;;;;1.58;0.90;;;5.60;99.90;;;;;;5098072;28;20029;-67
2022/02/01 15:19:08;;;;;;;1.98;1.08;;;5.60;99.90;;;;;;5079988;28;20045;-67
2022/02/01 15:21:35;;;;;;;1.52;0.90;;;5.60;99.90;;;;;;5079945;28;20056;-67
2022/02/01 15:24:08;;;;;;;1.52;0.90;;;5.60;99.90;;;;;;5097808;28;20077;-67